sensor_id;sensor_type;location;lat;lon;timestamp;P1;durP1;ratioP1;P2;durP2;ratioP2
4391;SDS011;2210;51.938;8.488;2022-09-21T00:02:14;4.20;;;2.20;;
4391;SDS011;2210;51.938;8.488;2022-09-21T00:06:15;2.40;;;2.20;;
4391;SDS011;2210;51.938;8.488;2022-09-21T00:10:18;3.37;;;2.30;;
4391;SDS011;2210;51.938;8.488;2022-09-21T00:14:19;2.60;;;2.40;;
4391;SDS011;2210;51.938;8.488;2022-09-21T00:18:20;3.13;;;2.20;;
4391;SDS011;2210;51.938;8.488;2022-09-21T00:22:20;4.43;;;2.37;;
4391;SDS011;2210;51.938;8.488;2022-09-21T00:26:22;1.90;;;1.70;;
4391;SDS011;2210;51.938;8.488;2022-09-21T00:30:23;3.50;;;2.73;;
4391;SDS011;2210;51.938;8.488;2022-09-21T00:34:23;3.15;;;2.35;;
4391;SDS011;2210;51.938;8.488;2022-09-21T00:38:23;3.50;;;2.35;;
4391;SDS011;2210;51.938;8.488;2022-09-21T00:46:29;2.67;;;1.90;;
4391;SDS011;2210;51.938;8.488;2022-09-21T00:50:30;3.67;;;2.10;;
4391;SDS011;2210;51.938;8.488;2022-09-21T00:54:37;2.50;;;2.20;;
4391;SDS011;2210;51.938;8.488;2022-09-21T00:58:44;2.40;;;2.20;;
4391;SDS011;2210;51.938;8.488;2022-09-21T01:02:47;2.83;;;2.27;;
4391;SDS011;2210;51.938;8.488;2022-09-21T01:06:48;4.33;;;2.53;;
4391;SDS011;2210;51.938;8.488;2022-09-21T01:24:25;1.97;;;1.87;;
4391;SDS011;2210;51.938;8.488;2022-09-21T01:33:14;2.03;;;1.83;;
4391;SDS011;2210;51.938;8.488;2022-09-21T01:37:23;2.30;;;2.10;;
4391;SDS011;2210;51.938;8.488;2022-09-21T01:41:30;1.73;;;1.63;;
4391;SDS011;2210;51.938;8.488;2022-09-21T01:45:33;4.20;;;2.30;;
4391;SDS011;2210;51.938;8.488;2022-09-21T01:49:37;3.17;;;2.50;;
4391;SDS011;2210;51.938;8.488;2022-09-21T01:54:02;4.30;;;2.53;;
4391;SDS011;2210;51.938;8.488;2022-09-21T01:58:05;4.13;;;2.17;;
4391;SDS011;2210;51.938;8.488;2022-09-21T02:02:18;2.23;;;2.03;;
4391;SDS011;2210;51.938;8.488;2022-09-21T02:06:26;2.50;;;2.30;;
4391;SDS011;2210;51.938;8.488;2022-09-21T02:10:30;3.40;;;2.07;;
4391;SDS011;2210;51.938;8.488;2022-09-21T02:14:33;2.20;;;2.10;;
4391;SDS011;2210;51.938;8.488;2022-09-21T02:27:02;2.00;;;1.83;;
4391;SDS011;2210;51.938;8.488;2022-09-21T02:31:07;3.23;;;2.43;;
4391;SDS011;2210;51.938;8.488;2022-09-21T02:35:17;3.00;;;2.30;;
4391;SDS011;2210;51.938;8.488;2022-09-21T02:39:21;3.43;;;1.83;;
4391;SDS011;2210;51.938;8.488;2022-09-21T02:43:31;2.03;;;1.83;;
4391;SDS011;2210;51.938;8.488;2022-09-21T02:47:38;2.33;;;1.63;;
4391;SDS011;2210;51.938;8.488;2022-09-21T02:51:51;2.20;;;2.10;;
4391;SDS011;2210;51.938;8.488;2022-09-21T02:55:56;3.83;;;2.10;;
4391;SDS011;2210;51.938;8.488;2022-09-21T03:00:02;8.43;;;2.40;;
4391;SDS011;2210;51.938;8.488;2022-09-21T03:04:03;2.50;;;2.20;;
4391;SDS011;2210;51.938;8.488;2022-09-21T03:08:03;2.20;;;2.10;;
4391;SDS011;2210;51.938;8.488;2022-09-21T03:12:05;4.80;;;2.00;;
4391;SDS011;2210;51.938;8.488;2022-09-21T03:16:06;3.10;;;2.37;;
4391;SDS011;2210;51.938;8.488;2022-09-21T03:20:06;4.00;;;2.60;;
4391;SDS011;2210;51.938;8.488;2022-09-21T03:24:06;2.40;;;2.20;;
4391;SDS011;2210;51.938;8.488;2022-09-21T03:28:07;2.97;;;2.20;;
4391;SDS011;2210;51.938;8.488;2022-09-21T03:32:08;2.53;;;2.33;;
4391;SDS011;2210;51.938;8.488;2022-09-21T03:36:08;2.73;;;2.10;;
4391;SDS011;2210;51.938;8.488;2022-09-21T03:40:09;3.23;;;2.73;;
4391;SDS011;2210;51.938;8.488;2022-09-21T03:44:11;3.30;;;3.00;;
4391;SDS011;2210;51.938;8.488;2022-09-21T03:48:11;3.67;;;2.30;;
4391;SDS011;2210;51.938;8.488;2022-09-21T03:52:12;2.40;;;2.20;;
4391;SDS011;2210;51.938;8.488;2022-09-21T03:56:13;2.25;;;2.05;;
4391;SDS011;2210;51.938;8.488;2022-09-21T04:00:13;2.08;;;1.83;;
4391;SDS011;2210;51.938;8.488;2022-09-21T04:04:14;2.03;;;1.90;;
4391;SDS011;2210;51.938;8.488;2022-09-21T04:08:15;2.30;;;1.90;;
4391;SDS011;2210;51.938;8.488;2022-09-21T04:12:16;2.97;;;2.72;;
4391;SDS011;2210;51.938;8.488;2022-09-21T04:16:16;2.00;;;1.90;;
4391;SDS011;2210;51.938;8.488;2022-09-21T04:20:16;2.10;;;1.70;;
4391;SDS011;2210;51.938;8.488;2022-09-21T04:24:17;2.03;;;1.90;;
4391;SDS011;2210;51.938;8.488;2022-09-21T04:28:20;1.67;;;1.57;;
4391;SDS011;2210;51.938;8.488;2022-09-21T04:32:21;2.10;;;1.90;;
4391;SDS011;2210;51.938;8.488;2022-09-21T04:36:22;2.38;;;2.17;;
4391;SDS011;2210;51.938;8.488;2022-09-21T04:40:23;2.17;;;1.97;;
4391;SDS011;2210;51.938;8.488;2022-09-21T04:44:23;2.13;;;2.00;;
4391;SDS011;2210;51.938;8.488;2022-09-21T04:48:24;1.90;;;1.80;;
4391;SDS011;2210;51.938;8.488;2022-09-21T04:52:24;2.00;;;1.80;;
4391;SDS011;2210;51.938;8.488;2022-09-21T04:56:24;4.90;;;2.40;;
4391;SDS011;2210;51.938;8.488;2022-09-21T05:00:24;2.20;;;1.90;;
4391;SDS011;2210;51.938;8.488;2022-09-21T05:04:25;1.90;;;1.80;;
4391;SDS011;2210;51.938;8.488;2022-09-21T05:08:26;3.53;;;2.03;;
4391;SDS011;2210;51.938;8.488;2022-09-21T05:12:45;4.30;;;2.67;;
4391;SDS011;2210;51.938;8.488;2022-09-21T05:16:45;4.27;;;2.57;;
4391;SDS011;2210;51.938;8.488;2022-09-21T05:20:55;1.90;;;1.80;;
4391;SDS011;2210;51.938;8.488;2022-09-21T05:24:56;4.10;;;2.17;;
4391;SDS011;2210;51.938;8.488;2022-09-21T05:28:56;3.80;;;2.73;;
4391;SDS011;2210;51.938;8.488;2022-09-21T05:33:00;2.50;;;2.30;;
4391;SDS011;2210;51.938;8.488;2022-09-21T05:37:24;2.90;;;2.70;;
4391;SDS011;2210;51.938;8.488;2022-09-21T05:41:26;7.17;;;2.37;;
4391;SDS011;2210;51.938;8.488;2022-09-21T05:45:27;5.17;;;2.40;;
4391;SDS011;2210;51.938;8.488;2022-09-21T05:50:14;2.77;;;2.57;;
4391;SDS011;2210;51.938;8.488;2022-09-21T05:54:14;6.07;;;3.53;;
4391;SDS011;2210;51.938;8.488;2022-09-21T05:58:21;15.20;;;9.90;;
4391;SDS011;2210;51.938;8.488;2022-09-21T06:02:46;9.00;;;6.57;;
4391;SDS011;2210;51.938;8.488;2022-09-21T06:06:51;8.37;;;4.80;;
4391;SDS011;2210;51.938;8.488;2022-09-21T06:10:52;8.70;;;4.07;;
4391;SDS011;2210;51.938;8.488;2022-09-21T06:14:52;4.30;;;3.70;;
4391;SDS011;2210;51.938;8.488;2022-09-21T06:18:54;5.53;;;4.07;;
4391;SDS011;2210;51.938;8.488;2022-09-21T06:23:08;6.63;;;3.78;;
4391;SDS011;2210;51.938;8.488;2022-09-21T06:27:10;4.17;;;3.77;;
4391;SDS011;2210;51.938;8.488;2022-09-21T06:31:10;4.43;;;3.50;;
4391;SDS011;2210;51.938;8.488;2022-09-21T06:35:10;4.43;;;3.37;;
4391;SDS011;2210;51.938;8.488;2022-09-21T06:39:11;4.27;;;3.87;;
4391;SDS011;2210;51.938;8.488;2022-09-21T06:43:11;4.33;;;3.57;;
4391;SDS011;2210;51.938;8.488;2022-09-21T06:47:12;4.30;;;3.60;;
4391;SDS011;2210;51.938;8.488;2022-09-21T06:51:12;4.40;;;3.72;;
4391;SDS011;2210;51.938;8.488;2022-09-21T06:55:13;5.57;;;4.40;;
4391;SDS011;2210;51.938;8.488;2022-09-21T06:59:13;7.67;;;3.70;;
4391;SDS011;2210;51.938;8.488;2022-09-21T07:03:14;4.30;;;3.90;;
4391;SDS011;2210;51.938;8.488;2022-09-21T07:07:14;7.20;;;4.90;;
4391;SDS011;2210;51.938;8.488;2022-09-21T07:11:14;4.53;;;3.67;;
4391;SDS011;2210;51.938;8.488;2022-09-21T07:15:15;4.80;;;3.80;;
4391;SDS011;2210;51.938;8.488;2022-09-21T07:19:15;5.10;;;4.13;;
4391;SDS011;2210;51.938;8.488;2022-09-21T07:23:16;4.57;;;4.00;;
4391;SDS011;2210;51.938;8.488;2022-09-21T07:27:18;4.60;;;3.80;;
4391;SDS011;2210;51.938;8.488;2022-09-21T07:31:18;8.13;;;4.97;;
4391;SDS011;2210;51.938;8.488;2022-09-21T07:35:18;5.43;;;4.25;;
4391;SDS011;2210;51.938;8.488;2022-09-21T07:39:19;7.00;;;4.90;;
4391;SDS011;2210;51.938;8.488;2022-09-21T07:43:19;6.50;;;4.53;;
4391;SDS011;2210;51.938;8.488;2022-09-21T07:47:19;11.15;;;5.72;;
4391;SDS011;2210;51.938;8.488;2022-09-21T07:51:19;6.30;;;5.60;;
4391;SDS011;2210;51.938;8.488;2022-09-21T07:55:20;7.70;;;6.50;;
4391;SDS011;2210;51.938;8.488;2022-09-21T07:59:20;11.60;;;6.57;;
4391;SDS011;2210;51.938;8.488;2022-09-21T08:03:21;8.70;;;6.10;;
4391;SDS011;2210;51.938;8.488;2022-09-21T08:07:21;8.23;;;6.30;;
4391;SDS011;2210;51.938;8.488;2022-09-21T08:11:22;6.80;;;6.10;;
4391;SDS011;2210;51.938;8.488;2022-09-21T08:15:22;8.50;;;6.00;;
4391;SDS011;2210;51.938;8.488;2022-09-21T08:19:22;7.03;;;6.40;;
4391;SDS011;2210;51.938;8.488;2022-09-21T08:23:25;10.47;;;6.23;;
4391;SDS011;2210;51.938;8.488;2022-09-21T08:27:27;10.20;;;6.53;;
4391;SDS011;2210;51.938;8.488;2022-09-21T08:31:28;9.27;;;7.55;;
4391;SDS011;2210;51.938;8.488;2022-09-21T08:35:29;10.43;;;6.10;;
4391;SDS011;2210;51.938;8.488;2022-09-21T08:39:29;9.18;;;6.88;;
4391;SDS011;2210;51.938;8.488;2022-09-21T08:43:38;8.23;;;5.88;;
4391;SDS011;2210;51.938;8.488;2022-09-21T08:47:45;10.00;;;5.60;;
4391;SDS011;2210;51.938;8.488;2022-09-21T08:51:56;6.43;;;5.40;;
4391;SDS011;2210;51.938;8.488;2022-09-21T08:55:59;5.63;;;4.87;;
4391;SDS011;2210;51.938;8.488;2022-09-21T09:00:05;7.03;;;5.03;;
4391;SDS011;2210;51.938;8.488;2022-09-21T09:18:03;8.03;;;4.00;;
4391;SDS011;2210;51.938;8.488;2022-09-21T09:22:09;5.07;;;3.30;;
4391;SDS011;2210;51.938;8.488;2022-09-21T09:26:15;7.27;;;3.50;;
4391;SDS011;2210;51.938;8.488;2022-09-21T09:30:20;4.33;;;2.90;;
4391;SDS011;2210;51.938;8.488;2022-09-21T09:34:27;7.40;;;3.23;;
4391;SDS011;2210;51.938;8.488;2022-09-21T09:38:33;8.53;;;2.90;;
4391;SDS011;2210;51.938;8.488;2022-09-21T09:42:43;6.77;;;3.30;;
4391;SDS011;2210;51.938;8.488;2022-09-21T09:50:58;5.43;;;2.83;;
4391;SDS011;2210;51.938;8.488;2022-09-21T09:54:59;3.90;;;2.70;;
4391;SDS011;2210;51.938;8.488;2022-09-21T09:59:00;5.67;;;3.07;;
4391;SDS011;2210;51.938;8.488;2022-09-21T10:03:14;4.80;;;2.60;;
4391;SDS011;2210;51.938;8.488;2022-09-21T10:07:17;3.90;;;2.43;;
4391;SDS011;2210;51.938;8.488;2022-09-21T10:11:18;4.10;;;2.60;;
4391;SDS011;2210;51.938;8.488;2022-09-21T10:15:19;8.43;;;2.40;;
4391;SDS011;2210;51.938;8.488;2022-09-21T10:19:23;4.13;;;1.97;;
4391;SDS011;2210;51.938;8.488;2022-09-21T10:23:26;2.73;;;1.67;;
4391;SDS011;2210;51.938;8.488;2022-09-21T10:27:28;6.37;;;2.30;;
4391;SDS011;2210;51.938;8.488;2022-09-21T10:31:33;8.50;;;2.47;;
4391;SDS011;2210;51.938;8.488;2022-09-21T10:35:37;4.20;;;1.87;;
4391;SDS011;2210;51.938;8.488;2022-09-21T10:39:48;3.90;;;1.83;;
4391;SDS011;2210;51.938;8.488;2022-09-21T10:43:48;3.90;;;2.13;;
4391;SDS011;2210;51.938;8.488;2022-09-21T10:51:56;5.53;;;1.83;;
4391;SDS011;2210;51.938;8.488;2022-09-21T10:56:01;6.27;;;1.90;;
4391;SDS011;2210;51.938;8.488;2022-09-21T11:00:11;2.70;;;1.57;;
4391;SDS011;2210;51.938;8.488;2022-09-21T11:04:26;9.70;;;2.40;;
4391;SDS011;2210;51.938;8.488;2022-09-21T11:17:12;6.93;;;1.93;;
4391;SDS011;2210;51.938;8.488;2022-09-21T11:25:46;6.77;;;2.33;;
4391;SDS011;2210;51.938;8.488;2022-09-21T11:29:59;3.47;;;1.67;;
4391;SDS011;2210;51.938;8.488;2022-09-21T11:38:27;3.27;;;1.40;;
4391;SDS011;2210;51.938;8.488;2022-09-21T11:47:16;5.33;;;1.30;;
4391;SDS011;2210;51.938;8.488;2022-09-21T11:51:53;7.17;;;1.80;;
4391;SDS011;2210;51.938;8.488;2022-09-21T11:56:21;2.53;;;1.13;;
4391;SDS011;2210;51.938;8.488;2022-09-21T12:00:32;5.43;;;1.63;;
4391;SDS011;2210;51.938;8.488;2022-09-21T12:04:46;3.37;;;1.40;;
4391;SDS011;2210;51.938;8.488;2022-09-21T12:22:08;3.47;;;1.43;;
4391;SDS011;2210;51.938;8.488;2022-09-21T12:26:13;5.03;;;1.47;;
4391;SDS011;2210;51.938;8.488;2022-09-21T12:30:19;5.87;;;1.40;;
4391;SDS011;2210;51.938;8.488;2022-09-21T12:34:21;4.70;;;1.33;;
4391;SDS011;2210;51.938;8.488;2022-09-21T12:38:27;5.30;;;1.50;;
4391;SDS011;2210;51.938;8.488;2022-09-21T12:42:33;15.10;;;1.90;;
4391;SDS011;2210;51.938;8.488;2022-09-21T12:46:42;3.17;;;1.10;;
4391;SDS011;2210;51.938;8.488;2022-09-21T12:54:57;4.73;;;1.33;;
4391;SDS011;2210;51.938;8.488;2022-09-21T12:59:24;4.23;;;1.17;;
4391;SDS011;2210;51.938;8.488;2022-09-21T13:03:33;2.87;;;1.13;;
4391;SDS011;2210;51.938;8.488;2022-09-21T13:12:08;4.63;;;1.70;;
4391;SDS011;2210;51.938;8.488;2022-09-21T13:16:21;6.20;;;1.30;;
4391;SDS011;2210;51.938;8.488;2022-09-21T13:20:25;6.40;;;1.23;;
4391;SDS011;2210;51.938;8.488;2022-09-21T13:24:28;2.80;;;1.30;;
4391;SDS011;2210;51.938;8.488;2022-09-21T13:32:53;5.53;;;1.17;;
4391;SDS011;2210;51.938;8.488;2022-09-21T13:49:24;2.50;;;0.90;;
4391;SDS011;2210;51.938;8.488;2022-09-21T13:53:32;3.80;;;1.43;;
4391;SDS011;2210;51.938;8.488;2022-09-21T13:57:38;4.17;;;1.20;;
4391;SDS011;2210;51.938;8.488;2022-09-21T14:01:50;1.80;;;1.10;;
4391;SDS011;2210;51.938;8.488;2022-09-21T14:05:52;4.13;;;1.27;;
4391;SDS011;2210;51.938;8.488;2022-09-21T14:09:56;7.53;;;4.37;;
4391;SDS011;2210;51.938;8.488;2022-09-21T14:14:02;4.00;;;1.40;;
4391;SDS011;2210;51.938;8.488;2022-09-21T14:18:51;1.93;;;1.20;;
4391;SDS011;2210;51.938;8.488;2022-09-21T14:22:37;2.33;;;1.37;;
4391;SDS011;2210;51.938;8.488;2022-09-21T14:30:38;5.70;;;1.33;;
4391;SDS011;2210;51.938;8.488;2022-09-21T14:34:39;5.37;;;1.30;;
4391;SDS011;2210;51.938;8.488;2022-09-21T14:38:43;7.23;;;1.67;;
4391;SDS011;2210;51.938;8.488;2022-09-21T14:42:48;2.33;;;1.13;;
4391;SDS011;2210;51.938;8.488;2022-09-21T14:55:46;2.40;;;1.10;;
4391;SDS011;2210;51.938;8.488;2022-09-21T15:00:18;6.20;;;1.20;;
4391;SDS011;2210;51.938;8.488;2022-09-21T15:04:43;4.17;;;1.37;;
4391;SDS011;2210;51.938;8.488;2022-09-21T15:18:17;3.20;;;1.00;;
4391;SDS011;2210;51.938;8.488;2022-09-21T15:22:20;4.40;;;1.43;;
4391;SDS011;2210;51.938;8.488;2022-09-21T15:26:22;4.23;;;1.20;;
4391;SDS011;2210;51.938;8.488;2022-09-21T15:30:28;2.20;;;1.30;;
4391;SDS011;2210;51.938;8.488;2022-09-21T15:34:32;3.63;;;1.20;;
4391;SDS011;2210;51.938;8.488;2022-09-21T15:38:32;2.03;;;0.93;;
4391;SDS011;2210;51.938;8.488;2022-09-21T15:42:37;5.93;;;1.33;;
4391;SDS011;2210;51.938;8.488;2022-09-21T15:46:59;2.40;;;1.17;;
4391;SDS011;2210;51.938;8.488;2022-09-21T15:51:03;0.70;;;0.70;;
4391;SDS011;2210;51.938;8.488;2022-09-21T15:55:19;2.63;;;0.90;;
4391;SDS011;2210;51.938;8.488;2022-09-21T15:59:20;1.63;;;1.00;;
4391;SDS011;2210;51.938;8.488;2022-09-21T16:03:22;3.53;;;1.20;;
4391;SDS011;2210;51.938;8.488;2022-09-21T16:07:31;3.77;;;1.20;;
4391;SDS011;2210;51.938;8.488;2022-09-21T16:11:33;4.43;;;1.80;;
4391;SDS011;2210;51.938;8.488;2022-09-21T16:15:37;4.33;;;1.30;;
4391;SDS011;2210;51.938;8.488;2022-09-21T16:20:23;3.40;;;1.00;;
4391;SDS011;2210;51.938;8.488;2022-09-21T16:24:19;4.20;;;1.50;;
4391;SDS011;2210;51.938;8.488;2022-09-21T16:28:26;1.53;;;0.80;;
4391;SDS011;2210;51.938;8.488;2022-09-21T16:32:44;2.37;;;1.07;;
4391;SDS011;2210;51.938;8.488;2022-09-21T16:36:47;2.10;;;1.07;;
4391;SDS011;2210;51.938;8.488;2022-09-21T16:40:50;2.30;;;1.30;;
4391;SDS011;2210;51.938;8.488;2022-09-21T16:44:53;9.33;;;1.37;;
4391;SDS011;2210;51.938;8.488;2022-09-21T16:48:54;4.23;;;1.47;;
4391;SDS011;2210;51.938;8.488;2022-09-21T16:52:54;3.77;;;1.40;;
4391;SDS011;2210;51.938;8.488;2022-09-21T16:56:55;13.03;;;1.90;;
4391;SDS011;2210;51.938;8.488;2022-09-21T17:00:57;4.53;;;1.40;;
4391;SDS011;2210;51.938;8.488;2022-09-21T17:04:57;2.60;;;1.30;;
4391;SDS011;2210;51.938;8.488;2022-09-21T17:08:58;2.97;;;1.20;;
4391;SDS011;2210;51.938;8.488;2022-09-21T17:12:59;3.83;;;1.33;;
4391;SDS011;2210;51.938;8.488;2022-09-21T17:17:04;3.45;;;1.10;;
4391;SDS011;2210;51.938;8.488;2022-09-21T17:21:25;6.50;;;1.93;;
4391;SDS011;2210;51.938;8.488;2022-09-21T17:25:26;3.53;;;1.50;;
4391;SDS011;2210;51.938;8.488;2022-09-21T17:29:27;5.63;;;3.40;;
4391;SDS011;2210;51.938;8.488;2022-09-21T17:33:28;2.63;;;1.40;;
4391;SDS011;2210;51.938;8.488;2022-09-21T17:37:29;3.00;;;1.60;;
4391;SDS011;2210;51.938;8.488;2022-09-21T17:41:35;2.27;;;1.40;;
4391;SDS011;2210;51.938;8.488;2022-09-21T17:54:12;3.10;;;1.73;;
4391;SDS011;2210;51.938;8.488;2022-09-21T18:02:38;3.20;;;2.40;;
4391;SDS011;2210;51.938;8.488;2022-09-21T18:06:39;3.40;;;2.10;;
4391;SDS011;2210;51.938;8.488;2022-09-21T18:10:39;4.40;;;2.43;;
4391;SDS011;2210;51.938;8.488;2022-09-21T18:14:50;9.53;;;2.60;;
4391;SDS011;2210;51.938;8.488;2022-09-21T18:19:00;2.80;;;2.00;;
4391;SDS011;2210;51.938;8.488;2022-09-21T18:23:05;4.83;;;2.03;;
4391;SDS011;2210;51.938;8.488;2022-09-21T18:27:11;3.17;;;2.60;;
4391;SDS011;2210;51.938;8.488;2022-09-21T18:31:16;4.87;;;2.70;;
4391;SDS011;2210;51.938;8.488;2022-09-21T18:35:40;6.50;;;3.30;;
4391;SDS011;2210;51.938;8.488;2022-09-21T18:44:26;4.03;;;3.30;;
4391;SDS011;2210;51.938;8.488;2022-09-21T18:53:04;5.17;;;3.63;;
4391;SDS011;2210;51.938;8.488;2022-09-21T18:57:12;6.23;;;4.10;;
4391;SDS011;2210;51.938;8.488;2022-09-21T19:01:14;4.73;;;3.40;;
4391;SDS011;2210;51.938;8.488;2022-09-21T19:05:16;5.40;;;4.03;;
4391;SDS011;2210;51.938;8.488;2022-09-21T19:09:29;4.93;;;3.70;;
4391;SDS011;2210;51.938;8.488;2022-09-21T19:13:49;13.63;;;4.20;;
4391;SDS011;2210;51.938;8.488;2022-09-21T19:31:38;5.93;;;3.50;;
4391;SDS011;2210;51.938;8.488;2022-09-21T19:35:39;9.90;;;3.00;;
4391;SDS011;2210;51.938;8.488;2022-09-21T19:39:40;5.70;;;3.20;;
4391;SDS011;2210;51.938;8.488;2022-09-21T19:47:50;4.73;;;2.70;;
4391;SDS011;2210;51.938;8.488;2022-09-21T19:51:52;3.93;;;3.37;;
4391;SDS011;2210;51.938;8.488;2022-09-21T19:55:55;3.70;;;2.43;;
4391;SDS011;2210;51.938;8.488;2022-09-21T20:00:17;24.23;;;3.73;;
4391;SDS011;2210;51.938;8.488;2022-09-21T20:04:22;5.80;;;3.33;;
4391;SDS011;2210;51.938;8.488;2022-09-21T20:08:32;7.97;;;3.53;;
4391;SDS011;2210;51.938;8.488;2022-09-21T20:12:42;8.70;;;3.70;;
4391;SDS011;2210;51.938;8.488;2022-09-21T20:16:52;6.83;;;3.37;;
4391;SDS011;2210;51.938;8.488;2022-09-21T20:20:59;5.60;;;3.30;;
4391;SDS011;2210;51.938;8.488;2022-09-21T20:25:05;6.50;;;3.00;;
4391;SDS011;2210;51.938;8.488;2022-09-21T20:29:29;4.70;;;3.33;;
4391;SDS011;2210;51.938;8.488;2022-09-21T20:33:29;4.72;;;2.95;;
4391;SDS011;2210;51.938;8.488;2022-09-21T20:37:30;5.87;;;3.03;;
4391;SDS011;2210;51.938;8.488;2022-09-21T20:41:31;6.50;;;3.90;;
4391;SDS011;2210;51.938;8.488;2022-09-21T20:45:31;5.13;;;3.00;;
4391;SDS011;2210;51.938;8.488;2022-09-21T20:49:32;5.60;;;3.27;;
4391;SDS011;2210;51.938;8.488;2022-09-21T20:53:32;8.77;;;3.72;;
4391;SDS011;2210;51.938;8.488;2022-09-21T20:57:33;3.17;;;2.87;;
4391;SDS011;2210;51.938;8.488;2022-09-21T21:01:35;5.27;;;3.80;;
4391;SDS011;2210;51.938;8.488;2022-09-21T21:05:35;5.30;;;3.70;;
4391;SDS011;2210;51.938;8.488;2022-09-21T21:09:35;6.25;;;3.88;;
4391;SDS011;2210;51.938;8.488;2022-09-21T21:13:35;5.55;;;3.60;;
4391;SDS011;2210;51.938;8.488;2022-09-21T21:17:36;5.37;;;3.67;;
4391;SDS011;2210;51.938;8.488;2022-09-21T21:21:36;5.65;;;3.75;;
4391;SDS011;2210;51.938;8.488;2022-09-21T21:25:37;7.37;;;3.30;;
4391;SDS011;2210;51.938;8.488;2022-09-21T21:29:37;4.68;;;2.67;;
4391;SDS011;2210;51.938;8.488;2022-09-21T21:33:37;5.37;;;3.53;;
4391;SDS011;2210;51.938;8.488;2022-09-21T21:37:38;6.87;;;2.97;;
4391;SDS011;2210;51.938;8.488;2022-09-21T21:41:39;4.20;;;2.70;;
4391;SDS011;2210;51.938;8.488;2022-09-21T21:45:39;4.73;;;2.90;;
4391;SDS011;2210;51.938;8.488;2022-09-21T21:49:40;3.27;;;2.67;;
4391;SDS011;2210;51.938;8.488;2022-09-21T21:53:40;3.60;;;2.80;;
4391;SDS011;2210;51.938;8.488;2022-09-21T21:57:42;8.63;;;2.57;;
4391;SDS011;2210;51.938;8.488;2022-09-21T22:01:42;7.03;;;2.30;;
4391;SDS011;2210;51.938;8.488;2022-09-21T22:05:42;3.50;;;2.40;;
4391;SDS011;2210;51.938;8.488;2022-09-21T22:09:42;6.88;;;2.83;;
4391;SDS011;2210;51.938;8.488;2022-09-21T22:13:43;3.15;;;2.80;;
4391;SDS011;2210;51.938;8.488;2022-09-21T22:17:44;2.90;;;2.67;;
4391;SDS011;2210;51.938;8.488;2022-09-21T22:21:44;4.33;;;2.20;;
4391;SDS011;2210;51.938;8.488;2022-09-21T22:25:45;2.53;;;2.33;;
4391;SDS011;2210;51.938;8.488;2022-09-21T22:29:46;2.95;;;2.47;;
4391;SDS011;2210;51.938;8.488;2022-09-21T22:33:46;3.38;;;2.50;;
4391;SDS011;2210;51.938;8.488;2022-09-21T22:37:46;4.90;;;2.33;;
4391;SDS011;2210;51.938;8.488;2022-09-21T22:41:47;4.70;;;2.67;;
4391;SDS011;2210;51.938;8.488;2022-09-21T22:45:47;3.23;;;2.07;;
4391;SDS011;2210;51.938;8.488;2022-09-21T22:49:47;2.22;;;2.03;;
4391;SDS011;2210;51.938;8.488;2022-09-21T22:53:48;2.45;;;2.25;;
4391;SDS011;2210;51.938;8.488;2022-09-21T22:57:49;3.97;;;2.10;;
4391;SDS011;2210;51.938;8.488;2022-09-21T23:01:49;9.00;;;2.20;;
4391;SDS011;2210;51.938;8.488;2022-09-21T23:05:56;2.60;;;1.90;;
4391;SDS011;2210;51.938;8.488;2022-09-21T23:09:57;2.90;;;2.47;;
4391;SDS011;2210;51.938;8.488;2022-09-21T23:13:57;2.53;;;2.10;;
4391;SDS011;2210;51.938;8.488;2022-09-21T23:17:58;4.10;;;1.80;;
4391;SDS011;2210;51.938;8.488;2022-09-21T23:21:58;4.32;;;2.30;;
4391;SDS011;2210;51.938;8.488;2022-09-21T23:26:10;4.33;;;2.40;;
4391;SDS011;2210;51.938;8.488;2022-09-21T23:30:10;2.30;;;2.10;;
4391;SDS011;2210;51.938;8.488;2022-09-21T23:34:10;3.27;;;2.00;;
4391;SDS011;2210;51.938;8.488;2022-09-21T23:38:11;3.37;;;2.13;;
4391;SDS011;2210;51.938;8.488;2022-09-21T23:42:11;3.80;;;2.50;;
4391;SDS011;2210;51.938;8.488;2022-09-21T23:46:13;3.60;;;2.10;;
4391;SDS011;2210;51.938;8.488;2022-09-21T23:50:15;1.77;;;1.67;;
4391;SDS011;2210;51.938;8.488;2022-09-21T23:54:15;2.00;;;1.60;;
4391;SDS011;2210;51.938;8.488;2022-09-21T23:58:15;2.27;;;1.60;;
